createdAt,value
2023-03-31T00:01:20.223Z,92.91
2023-03-31T00:03:52.886Z,91.47
2023-03-31T00:06:23.438Z,90.24
2023-03-31T00:08:54.500Z,91.41
2023-03-31T00:11:25.560Z,90.55
2023-03-31T00:13:55.794Z,93.79
2023-03-31T00:16:28.219Z,91.07
2023-03-31T00:18:59.638Z,92.65
2023-03-31T00:21:34.259Z,91.78
2023-03-31T00:24:05.929Z,91.93
2023-03-31T00:26:37.888Z,91.11
2023-03-31T00:29:09.409Z,90.39
2023-03-31T00:31:42.492Z,91.89
2023-03-31T00:34:14.647Z,92.41
2023-03-31T00:36:47.989Z,90.74
2023-03-31T00:39:20.151Z,91.43
2023-03-31T00:41:50.980Z,91.43
2023-03-31T00:44:24.982Z,90.96
2023-03-31T00:46:59.151Z,91.94
2023-03-31T00:49:40.880Z,93.89
2023-03-31T00:52:15.068Z,92.60
2023-03-31T00:54:47.432Z,93.17
2023-03-31T00:57:18.240Z,94.17
2023-03-31T00:59:51.068Z,95.05
2023-03-31T01:02:22.118Z,92.62
2023-03-31T01:04:57.646Z,93.14
2023-03-31T01:07:31.522Z,90.91
2023-03-31T01:10:04.036Z,91.93
2023-03-31T01:12:36.661Z,93.28
2023-03-31T01:15:08.243Z,92.68
2023-03-31T01:17:38.731Z,91.98
2023-03-31T01:20:16.732Z,92.76
2023-03-31T01:23:23.254Z,91.54
2023-03-31T01:26:27.188Z,91.10
2023-03-31T01:29:06.226Z,93.17
2023-03-31T01:32:04.526Z,93.06
2023-03-31T01:34:59.249Z,92.99
2023-03-31T01:38:04.775Z,94.45
2023-03-31T01:41:07.326Z,94.45
2023-03-31T01:43:42.127Z,91.81
2023-03-31T01:46:21.883Z,93.25
2023-03-31T01:48:59.652Z,93.13
2023-03-31T01:51:35.657Z,93.56
2023-03-31T01:54:18.117Z,93.38
2023-03-31T01:56:54.772Z,92.55
2023-03-31T01:59:31.884Z,91.67
2023-03-31T02:02:03.217Z,94.11
2023-03-31T02:04:38.619Z,93.35
2023-03-31T02:07:14.800Z,92.04
2023-03-31T02:09:47.912Z,90.50
2023-03-31T02:12:21.219Z,92.06
2023-03-31T02:14:53.834Z,98.38
2023-03-31T02:17:30.743Z,94.06
2023-03-31T02:20:07.393Z,93.42
2023-03-31T02:22:40.592Z,91.34
2023-03-31T02:25:14.207Z,90.85
2023-03-31T02:27:48.718Z,93.30
2023-03-31T02:30:18.835Z,93.28
2023-03-31T02:32:50.135Z,89.60
2023-03-31T02:35:23.543Z,91.02
2023-03-31T02:37:54.081Z,89.24
2023-03-31T02:40:27.876Z,91.99
2023-03-31T02:42:59.861Z,91.97
2023-03-31T02:45:41.522Z,91.60
2023-03-31T02:48:16.644Z,88.59
2023-03-31T02:51:09.647Z,90.89
2023-03-31T02:53:48.380Z,90.37
2023-03-31T02:56:29.100Z,88.79
2023-03-31T02:59:14.145Z,87.89
2023-03-31T03:02:04.006Z,91.17
2023-03-31T03:05:03.801Z,87.85
2023-03-31T03:07:39.516Z,89.73
2023-03-31T03:10:13.480Z,90.77
2023-03-31T03:12:50.414Z,91.53
2023-03-31T03:15:26.698Z,90.86
2023-03-31T03:17:58.463Z,90.43
2023-03-31T03:20:29.100Z,92.25
2023-03-31T03:22:59.622Z,91.04
2023-03-31T03:25:30.547Z,88.35
2023-03-31T03:28:01.522Z,89.54
2023-03-31T03:30:33.789Z,91.73
2023-03-31T03:33:04.209Z,87.29
2023-03-31T03:35:34.607Z,90.63
2023-03-31T03:38:05.282Z,92.90
2023-03-31T03:40:35.330Z,92.03
2023-03-31T03:43:05.924Z,90.33
2023-03-31T03:45:38.703Z,89.36
2023-03-31T03:48:11.695Z,89.40
2023-03-31T03:50:41.863Z,86.94
2023-03-31T03:53:12.551Z,91.09
2023-03-31T03:55:43.181Z,91.57
2023-03-31T03:58:14.357Z,91.96
2023-03-31T04:00:46.768Z,90.13
2023-03-31T04:03:17.185Z,90.61
2023-03-31T04:05:50.214Z,91.49
2023-03-31T04:08:20.914Z,95.40
2023-03-31T04:10:52.676Z,91.34
2023-03-31T04:13:28.007Z,90.85
2023-03-31T04:16:01.261Z,90.16
2023-03-31T04:18:32.591Z,90.12
2023-03-31T04:21:05.885Z,93.50
2023-03-31T04:23:39.269Z,91.00
2023-03-31T04:26:09.681Z,92.18
2023-03-31T04:28:47.076Z,91.95
2023-03-31T04:31:25.700Z,92.74
2023-03-31T04:34:01.874Z,91.75
2023-03-31T04:36:33.504Z,90.21
2023-03-31T04:39:03.733Z,89.66
2023-03-31T04:41:33.776Z,88.94
2023-03-31T04:44:04.389Z,91.63
2023-03-31T04:46:41.338Z,91.44
2023-03-31T04:49:12.098Z,92.56
2023-03-31T04:51:43.908Z,90.64
2023-03-31T04:54:14.340Z,90.85
2023-03-31T04:56:44.939Z,88.80
2023-03-31T04:59:17.094Z,88.48
2023-03-31T05:01:51.196Z,89.62
2023-03-31T05:04:23.545Z,89.52
2023-03-31T05:06:54.461Z,92.46
2023-03-31T05:09:25.655Z,93.39
2023-03-31T05:11:55.524Z,95.45
2023-03-31T05:14:25.733Z,93.12
2023-03-31T05:16:59.697Z,94.01
2023-03-31T05:19:30.756Z,94.83
2023-03-31T05:22:01.941Z,93.11
2023-03-31T05:24:32.863Z,92.86
2023-03-31T05:27:04.303Z,95.35
2023-03-31T05:29:34.741Z,95.37
2023-03-31T05:32:12.313Z,94.52
2023-03-31T05:34:44.344Z,95.46
2023-03-31T05:37:14.866Z,91.64
2023-03-31T05:39:45.171Z,93.48
2023-03-31T05:42:15.966Z,92.88
2023-03-31T05:44:46.043Z,92.83
2023-03-31T05:47:20.394Z,90.97
2023-03-31T05:49:51.739Z,93.51
2023-03-31T05:52:23.140Z,93.78
2023-03-31T05:54:53.621Z,91.42
2023-03-31T05:57:23.941Z,91.37
2023-03-31T05:59:54.290Z,90.36
2023-03-31T06:02:26.848Z,92.70
2023-03-31T06:04:57.939Z,92.34
2023-03-31T06:07:28.636Z,93.89
2023-03-31T06:09:59.225Z,95.56
2023-03-31T06:12:30.776Z,92.79
2023-03-31T06:15:03.152Z,94.92
2023-03-31T06:17:35.612Z,92.53
2023-03-31T06:20:24.013Z,93.08
2023-03-31T06:22:58.635Z,93.32
2023-03-31T06:25:34.530Z,93.85
2023-03-31T06:28:11.791Z,94.24
2023-03-31T06:30:43.554Z,92.80
2023-03-31T06:33:16.919Z,91.23
2023-03-31T06:35:47.567Z,91.39
2023-03-31T06:38:18.567Z,93.99
2023-03-31T06:40:49.309Z,91.83
2023-03-31T06:43:20.055Z,90.69
2023-03-31T06:45:52.610Z,90.34
2023-03-31T06:48:27.617Z,93.22
2023-03-31T06:51:03.541Z,93.41
2023-03-31T06:53:35.603Z,92.56
2023-03-31T06:56:07.331Z,93.38
2023-03-31T06:58:38.059Z,94.32
2023-03-31T07:01:09.398Z,94.76
2023-03-31T07:03:41.932Z,93.27
2023-03-31T07:06:12.852Z,95.03
2023-03-31T07:08:43.451Z,94.31
2023-03-31T07:11:13.811Z,95.99
2023-03-31T07:13:50.438Z,99.06
2023-03-31T07:16:21.144Z,100.00
2023-03-31T07:18:55.187Z,99.46
2023-03-31T07:21:25.491Z,98.48
2023-03-31T07:23:56.502Z,96.37
2023-03-31T07:26:27.371Z,97.80
2023-03-31T07:28:59.658Z,92.66
2023-03-31T07:31:29.785Z,90.36
2023-03-31T07:34:07.030Z,89.52
2023-03-31T07:36:37.539Z,88.25
2023-03-31T07:39:09.154Z,92.29
2023-03-31T07:41:39.811Z,90.94
2023-03-31T07:44:10.416Z,90.12
2023-03-31T07:46:41.084Z,89.30
2023-03-31T07:49:16.284Z,88.06
2023-03-31T07:51:46.951Z,89.44
2023-03-31T07:54:17.504Z,88.35
2023-03-31T07:56:48.414Z,90.09
2023-03-31T07:59:18.765Z,90.04
2023-03-31T08:01:53.333Z,88.22
2023-03-31T08:04:25.560Z,87.25
2023-03-31T08:06:55.772Z,85.99
2023-03-31T08:09:26.232Z,82.85
2023-03-31T08:11:56.930Z,84.20
2023-03-31T08:14:40.063Z,83.24
2023-03-31T08:17:17.321Z,82.37
2023-03-31T08:19:50.989Z,81.64
2023-03-31T08:22:20.820Z,82.37
2023-03-31T08:24:51.592Z,81.32
2023-03-31T08:27:22.241Z,80.47
2023-03-31T08:29:52.537Z,80.65
2023-03-31T08:32:26.752Z,76.76
2023-03-31T08:34:59.739Z,78.04
2023-03-31T08:37:32.190Z,78.16
2023-03-31T08:40:04.940Z,77.01
2023-03-31T08:42:39.479Z,76.12
2023-03-31T08:45:17.778Z,75.92
2023-03-31T08:47:52.420Z,75.94
2023-03-31T08:50:31.858Z,73.86
2023-03-31T08:53:07.152Z,73.37
2023-03-31T08:55:43.961Z,73.72
2023-03-31T08:58:20.404Z,71.86
2023-03-31T09:00:55.810Z,70.45
2023-03-31T09:03:33.694Z,73.72
2023-03-31T09:06:09.522Z,73.46
2023-03-31T09:08:40.963Z,71.81
2023-03-31T09:11:23.671Z,72.90
2023-03-31T09:14:14.035Z,72.84
2023-03-31T09:16:47.415Z,72.95
2023-03-31T09:19:21.959Z,72.80
2023-03-31T09:21:54.882Z,69.11
2023-03-31T09:24:30.915Z,66.27
2023-03-31T09:27:04.704Z,67.36
2023-03-31T09:29:43.244Z,64.01
2023-03-31T09:32:18.278Z,63.28
2023-03-31T09:34:50.930Z,57.56
2023-03-31T09:37:22.514Z,58.49
2023-03-31T09:39:54.897Z,60.55
2023-03-31T09:42:25.112Z,59.67
2023-03-31T09:44:56.770Z,62.10
2023-03-31T09:47:34.288Z,60.85
2023-03-31T09:50:08.143Z,63.47
2023-03-31T09:52:42.253Z,63.13
2023-03-31T09:55:38.384Z,60.61
2023-03-31T09:58:15.701Z,61.28
2023-03-31T10:00:59.366Z,61.93
2023-03-31T10:03:29.974Z,59.59
2023-03-31T10:06:00.759Z,62.30
2023-03-31T10:08:34.260Z,60.89
2023-03-31T10:11:11.992Z,60.62
2023-03-31T10:13:49.451Z,63.36
2023-03-31T10:16:25.888Z,63.45
2023-03-31T10:18:59.007Z,61.62
2023-03-31T10:21:30.906Z,59.41
2023-03-31T10:24:02.892Z,60.73
2023-03-31T10:26:33.204Z,62.87
2023-03-31T10:29:03.783Z,58.74
2023-03-31T10:31:38.210Z,59.67
2023-03-31T10:34:09.770Z,57.90
2023-03-31T10:36:42.855Z,57.37
2023-03-31T10:39:18.817Z,57.75
2023-03-31T10:41:54.047Z,57.22
2023-03-31T10:44:37.001Z,58.73
2023-03-31T10:47:12.366Z,56.60
2023-03-31T10:49:44.259Z,58.25
2023-03-31T10:52:21.540Z,57.97
2023-03-31T10:54:57.189Z,58.44
2023-03-31T10:57:34.845Z,58.44
2023-03-31T11:00:18.864Z,58.65
2023-03-31T11:03:31.003Z,58.70
2023-03-31T11:06:05.359Z,59.70
2023-03-31T11:08:45.702Z,57.97
2023-03-31T11:11:26.474Z,59.53
2023-03-31T11:14:02.765Z,59.82
2023-03-31T11:16:39.660Z,61.28
2023-03-31T11:19:21.950Z,58.89
2023-03-31T11:21:59.530Z,56.46
2023-03-31T11:24:43.929Z,54.35
2023-03-31T11:27:33.591Z,56.34
2023-03-31T11:30:07.712Z,56.61
2023-03-31T11:32:50.884Z,58.60
2023-03-31T11:35:40.199Z,51.49
2023-03-31T11:38:24.164Z,48.56
2023-03-31T11:41:02.787Z,48.95
2023-03-31T11:43:38.087Z,48.63
2023-03-31T11:46:12.910Z,48.91
2023-03-31T11:48:47.687Z,52.47
2023-03-31T11:51:21.452Z,48.51
2023-03-31T11:53:53.247Z,50.11
2023-03-31T11:56:24.872Z,50.37
2023-03-31T11:58:59.244Z,47.80
2023-03-31T12:01:35.481Z,47.51
2023-03-31T12:04:08.533Z,46.78
2023-03-31T12:06:47.405Z,48.17
2023-03-31T12:09:21.728Z,48.69
2023-03-31T12:11:58.048Z,49.68
2023-03-31T12:14:36.978Z,49.15
2023-03-31T12:17:15.579Z,46.82
2023-03-31T12:19:50.215Z,47.26
2023-03-31T12:22:26.818Z,48.11
2023-03-31T12:24:58.791Z,46.04
2023-03-31T12:27:33.675Z,47.50
2023-03-31T12:37:45.110Z,48.90
2023-03-31T12:40:20.861Z,48.50
2023-03-31T12:43:19.550Z,46.58
2023-03-31T12:45:56.051Z,46.16
2023-03-31T12:48:45.706Z,45.93
2023-03-31T12:51:26.811Z,45.60
2023-03-31T12:54:09.942Z,46.14
2023-03-31T12:57:08.471Z,45.20
2023-03-31T12:59:40.113Z,48.61
2023-03-31T13:02:39.369Z,47.82
2023-03-31T13:05:44.182Z,45.30
2023-03-31T13:08:37.949Z,45.62
2023-03-31T13:11:08.670Z,43.79
2023-03-31T13:13:47.621Z,43.60
2023-03-31T13:16:25.554Z,43.47
2023-03-31T13:18:58.920Z,43.62
2023-03-31T13:21:30.026Z,44.46
2023-03-31T13:24:03.460Z,44.69
2023-03-31T13:26:49.339Z,43.92
2023-03-31T13:29:25.870Z,41.20
2023-03-31T13:32:24.377Z,42.50
2023-03-31T13:35:04.179Z,42.99
2023-03-31T13:38:03.851Z,40.00
2023-03-31T13:41:11.820Z,41.50
2023-03-31T13:44:12.120Z,42.12
2023-03-31T13:46:58.729Z,41.17
2023-03-31T13:50:05.109Z,41.38
2023-03-31T13:52:42.364Z,41.49
2023-03-31T13:55:46.946Z,40.68
2023-03-31T13:58:35.005Z,42.04
2023-03-31T14:01:33.624Z,41.93
2023-03-31T14:04:16.460Z,41.14
2023-03-31T14:06:52.448Z,43.27
2023-03-31T14:09:27.264Z,41.89
2023-03-31T14:11:59.519Z,43.22
2023-03-31T14:14:30.205Z,43.19
2023-03-31T14:17:03.081Z,43.51
2023-03-31T14:19:49.125Z,42.80
2023-03-31T14:22:32.196Z,43.72
2023-03-31T14:25:10.009Z,42.41
2023-03-31T14:27:49.177Z,43.07
2023-03-31T14:30:30.737Z,43.70
2023-03-31T14:33:16.991Z,43.96
2023-03-31T14:35:55.635Z,44.80
2023-03-31T14:38:28.829Z,45.61
2023-03-31T14:41:01.812Z,46.48
2023-03-31T14:43:34.535Z,46.97
2023-03-31T14:46:08.552Z,47.11
2023-03-31T14:48:45.654Z,45.80
2023-03-31T14:51:18.269Z,46.16
2023-03-31T14:53:49.837Z,46.52
2023-03-31T14:56:25.621Z,47.04
2023-03-31T14:58:56.735Z,47.80
2023-03-31T15:01:35.114Z,47.34
2023-03-31T15:04:09.607Z,47.01
2023-03-31T15:06:42.273Z,46.78
2023-03-31T15:09:25.370Z,46.20
2023-03-31T15:12:00.629Z,45.45
2023-03-31T15:14:32.690Z,45.69
2023-03-31T15:17:03.276Z,46.72
2023-03-31T15:19:35.867Z,47.52
2023-03-31T15:22:14.814Z,46.94
2023-03-31T15:24:50.649Z,46.58
2023-03-31T15:27:37.212Z,47.09
2023-03-31T15:30:10.328Z,47.01
2023-03-31T15:32:41.821Z,47.96
2023-03-31T15:35:23.721Z,47.27
2023-03-31T15:37:56.521Z,48.36
2023-03-31T15:40:30.850Z,47.19
2023-03-31T15:43:20.559Z,47.99
2023-03-31T15:45:56.664Z,48.29
2023-03-31T15:48:30.794Z,47.24
2023-03-31T15:51:09.681Z,48.83
2023-03-31T15:53:47.096Z,48.42
2023-03-31T15:56:34.993Z,47.45
2023-03-31T15:59:08.949Z,49.26
2023-03-31T16:01:43.582Z,49.11
2023-03-31T16:04:16.538Z,48.42
2023-03-31T16:06:50.653Z,48.86
2023-03-31T16:09:27.219Z,49.72
2023-03-31T16:12:02.173Z,50.16
2023-03-31T16:14:34.334Z,51.39
2023-03-31T16:17:08.533Z,51.59
2023-03-31T16:19:44.240Z,51.79
2023-03-31T16:22:18.147Z,51.67
2023-03-31T16:24:57.217Z,52.13
2023-03-31T16:27:29.303Z,51.75
2023-03-31T16:30:12.644Z,51.94
2023-03-31T16:33:03.093Z,53.29
2023-03-31T16:35:35.267Z,53.30
2023-03-31T16:38:08.163Z,52.95
2023-03-31T16:40:40.544Z,52.09
2023-03-31T16:43:16.790Z,53.34
2023-03-31T16:45:49.406Z,54.69
2023-03-31T16:48:21.126Z,54.11
2023-03-31T16:50:54.053Z,53.72
2023-03-31T16:53:27.114Z,52.76
2023-03-31T16:55:58.676Z,53.42
2023-03-31T16:58:32.694Z,53.75
2023-03-31T17:01:03.797Z,54.30
2023-03-31T17:03:34.910Z,56.85
2023-03-31T17:06:11.330Z,60.23
2023-03-31T17:08:42.284Z,62.50
2023-03-31T17:11:14.928Z,61.73
2023-03-31T17:13:49.256Z,60.05
2023-03-31T17:16:27.047Z,61.55
2023-03-31T17:19:07.497Z,64.65
2023-03-31T17:21:39.307Z,64.54
2023-03-31T17:24:11.094Z,66.07
2023-03-31T17:26:41.683Z,67.70
2023-03-31T17:29:15.523Z,71.54
2023-03-31T17:31:51.755Z,73.95
2023-03-31T17:34:23.164Z,76.18
2023-03-31T17:36:56.048Z,76.00
2023-03-31T17:39:28.361Z,77.87
2023-03-31T17:41:59.826Z,83.20
2023-03-31T17:44:31.783Z,87.79
2023-03-31T17:47:02.413Z,92.64
2023-03-31T17:49:32.900Z,90.39
2023-03-31T17:52:03.529Z,89.42
2023-03-31T17:54:33.548Z,86.07
2023-03-31T17:57:04.019Z,85.73
2023-03-31T17:59:37.557Z,91.54
2023-03-31T18:02:10.360Z,89.37
2023-03-31T18:04:41.167Z,90.57
2023-03-31T18:07:12.079Z,88.97
2023-03-31T18:09:42.958Z,87.49
2023-03-31T18:12:18.013Z,89.39
2023-03-31T18:14:49.676Z,87.14
2023-03-31T18:17:19.963Z,89.17
2023-03-31T18:19:50.751Z,93.44
2023-03-31T18:22:22.373Z,94.10
2023-03-31T18:24:52.692Z,89.24
2023-03-31T18:27:25.088Z,91.95
2023-03-31T18:29:57.599Z,92.99
2023-03-31T18:32:27.896Z,95.36
2023-03-31T18:34:59.278Z,96.16
2023-03-31T18:37:29.838Z,95.40
2023-03-31T18:39:59.938Z,96.04
2023-03-31T18:42:30.624Z,97.82
2023-03-31T18:45:03.340Z,96.32
2023-03-31T18:47:33.947Z,96.88
2023-03-31T18:50:05.307Z,94.77
2023-03-31T18:52:37.482Z,95.32
2023-03-31T18:55:08.923Z,94.28
2023-03-31T18:57:39.883Z,95.25
2023-03-31T19:00:16.029Z,96.90
2023-03-31T19:02:46.256Z,94.71
2023-03-31T19:05:17.514Z,97.22
2023-03-31T19:07:48.129Z,98.41
2023-03-31T19:10:18.776Z,100.00
2023-03-31T19:12:49.453Z,99.29
2023-03-31T19:15:21.014Z,99.48
2023-03-31T19:17:51.306Z,100.00
2023-03-31T19:20:21.984Z,97.62
2023-03-31T19:22:53.965Z,97.73
2023-03-31T19:25:24.523Z,99.26
2023-03-31T19:27:54.880Z,97.99
2023-03-31T19:30:29.044Z,97.97
2023-03-31T19:33:02.097Z,96.41
2023-03-31T19:35:32.797Z,99.29
2023-03-31T19:38:02.785Z,100.00
2023-03-31T19:40:32.956Z,100.00
2023-03-31T19:43:03.033Z,100.00
2023-03-31T19:45:36.511Z,100.00
2023-03-31T19:48:07.615Z,100.00
2023-03-31T19:50:37.777Z,100.00
2023-03-31T19:53:08.572Z,99.10
2023-03-31T19:55:40.495Z,100.00
2023-03-31T19:58:10.690Z,100.00
2023-03-31T20:00:42.677Z,100.00
2023-03-31T20:03:12.885Z,100.00
2023-03-31T20:05:43.635Z,99.97
2023-03-31T20:08:20.122Z,100.00
2023-03-31T20:10:50.337Z,100.00
2023-03-31T20:13:21.042Z,100.00
2023-03-31T20:16:02.289Z,100.00
2023-03-31T20:18:32.990Z,100.00
2023-03-31T20:21:09.106Z,100.00
2023-03-31T20:23:40.831Z,100.00
2023-03-31T20:26:12.379Z,100.00
2023-03-31T20:28:43.483Z,100.00
2023-03-31T20:31:16.670Z,100.00
2023-03-31T20:33:48.409Z,100.00
2023-03-31T20:36:21.079Z,100.00
2023-03-31T20:38:52.596Z,100.00
2023-03-31T20:41:26.689Z,100.00
2023-03-31T20:43:58.392Z,100.00
2023-03-31T20:46:30.018Z,100.00
2023-03-31T20:49:01.161Z,100.00
2023-03-31T20:51:36.530Z,100.00
2023-03-31T20:54:08.877Z,100.00
2023-03-31T20:56:41.812Z,100.00
2023-03-31T20:59:13.823Z,100.00
2023-03-31T21:01:50.120Z,100.00
2023-03-31T21:04:22.499Z,100.00
2023-03-31T21:06:54.907Z,99.90
2023-03-31T21:09:26.032Z,98.98
2023-03-31T21:11:56.775Z,98.93
2023-03-31T21:14:28.841Z,99.00
2023-03-31T21:17:01.399Z,98.40
2023-03-31T21:19:32.053Z,100.00
2023-03-31T21:22:01.960Z,100.00
2023-03-31T21:24:32.258Z,96.36
2023-03-31T21:27:03.153Z,100.00
2023-03-31T21:29:33.570Z,100.00
2023-03-31T21:32:07.194Z,100.00
2023-03-31T21:34:37.927Z,100.00
2023-03-31T21:37:09.277Z,100.00
2023-03-31T21:39:39.718Z,100.00
2023-03-31T21:42:09.822Z,100.00
2023-03-31T21:44:40.814Z,100.00
2023-03-31T21:47:14.114Z,100.00
2023-03-31T21:49:44.064Z,100.00
2023-03-31T21:52:16.200Z,100.00
2023-03-31T21:54:48.553Z,100.00
2023-03-31T21:57:18.356Z,100.00
2023-03-31T21:59:50.054Z,100.00
2023-03-31T22:02:23.978Z,100.00
2023-03-31T22:04:56.768Z,100.00
2023-03-31T22:07:27.665Z,100.00
2023-03-31T22:09:59.035Z,100.00
2023-03-31T22:12:30.225Z,100.00
2023-03-31T22:15:05.204Z,100.00
2023-03-31T22:17:36.648Z,100.00
2023-03-31T22:20:09.459Z,100.00
2023-03-31T22:22:42.520Z,100.00
2023-03-31T22:25:12.911Z,100.00
2023-03-31T22:27:43.943Z,100.00
2023-03-31T22:30:15.328Z,100.00
2023-03-31T22:32:47.390Z,100.00
2023-03-31T22:35:18.409Z,100.00
2023-03-31T22:37:52.463Z,100.00
2023-03-31T22:40:23.995Z,100.00
2023-03-31T22:42:57.657Z,100.00
2023-03-31T22:45:27.778Z,99.61
2023-03-31T22:48:02.398Z,96.83
2023-03-31T22:50:38.206Z,98.66
2023-03-31T22:53:11.848Z,99.11
2023-03-31T22:55:54.075Z,98.46
2023-03-31T22:58:25.003Z,100.00
2023-03-31T23:01:00.057Z,98.59
2023-03-31T23:03:32.328Z,100.00
2023-03-31T23:06:06.497Z,100.00
2023-03-31T23:08:41.695Z,100.00
2023-03-31T23:11:14.904Z,100.00
2023-03-31T23:13:44.602Z,100.00
2023-03-31T23:16:18.835Z,100.00
2023-03-31T23:18:51.843Z,99.09
2023-03-31T23:21:24.049Z,100.00
2023-03-31T23:23:55.741Z,98.40
2023-03-31T23:26:28.315Z,100.00
2023-03-31T23:28:59.954Z,99.69
2023-03-31T23:31:32.166Z,100.00
2023-03-31T23:34:04.327Z,100.00
2023-03-31T23:36:34.949Z,99.22
2023-03-31T23:39:07.285Z,98.63
2023-03-31T23:41:37.707Z,98.44
2023-03-31T23:44:12.537Z,96.06
2023-03-31T23:46:44.904Z,97.00
2023-03-31T23:49:16.961Z,96.57
2023-03-31T23:51:46.682Z,97.37
2023-03-31T23:54:16.931Z,98.57
2023-03-31T23:56:47.636Z,96.75
2023-03-31T23:59:17.906Z,99.23
